Terminal Aerodrome Forecast
Issued by NWS Wilmington, OH

Current Version | Previous Version | Graphics & Text | Print | Product List | Glossary Off
Versions: 1 2 3 4 5 6 7 8 9 10 11 12 13 14 15 16 17 18 19 20 21 22 23 24 25 26 27 28 29

000
FTUS41 KILN 201608 AAB
TAFILN
TAF AMD
KILN 201608Z 2016/2112 VRB03KT 6SM HZ BKN018
     FM201700 VRB04KT P6SM BKN025
     FM201800 33004KT P6SM SCT035
     FM210000 VRB04KT P6SM VCTS SCT040CB
     FM210400 07005KT P6SM FEW050 BKN120
     FM210600 07003KT 3SM BR SCT040=

USA.gov is the U.S. government's official web portal to all federal, state and local government web resources and services.